Time;durP1;ratioP1;P1;durP2;ratioP2;P2;SDS_P1;SDS_P2;PMS_P1;PMS_P2;Temp;Humidity;BMP_temperature;BMP_pressure;BME280_temperature;BME280_humidity;BME280_pressure;Samples;Min_cycle;Max_cycle;Signal;HPM_P1;HPM_P2
2022/01/31 00:00:49;;;;;;;;;;;;;;;-0.65;79.68;96881.38;4985466;28;20001;-74
2022/01/31 00:03:15;;;;;;;;;;;;;;;-0.67;79.50;96878.16;4988207;28;19983;-74
2022/01/31 00:05:41;;;;;;;;;;;;;;;-0.70;80.37;96878.41;4987369;28;19960;-74
2022/01/31 00:08:07;;;;;;;;;;;;;;;-0.79;80.64;96874.88;4985982;28;19972;-74
2022/01/31 00:10:33;;;;;;;;;;;;;;;-0.83;80.18;96861.47;4981828;28;20003;-74
2022/01/31 00:13:12;;;;;;;;;;;;;;;-0.78;79.88;96878.28;4983836;28;19955;-74
2022/01/31 00:15:41;;;;;;;;;;;;;;;-0.73;79.81;96886.41;4985545;28;20438;-74
2022/01/31 00:18:07;;;;;;;;;;;;;;;-0.69;79.88;96877.47;4985572;28;20394;-74
2022/01/31 00:20:33;;;;;;;;;;;;;;;-0.66;79.30;96862.53;4990304;28;19979;-75
2022/01/31 00:22:59;;;;;;;;;;;;;;;-0.63;79.81;96861.44;4986433;28;19979;-74
2022/01/31 00:25:25;;;;;;;;;;;;;;;-0.62;79.53;96871.63;4984132;28;19960;-74
2022/01/31 00:27:51;;;;;;;;;;;;;;;-0.59;79.42;96869.72;4982761;28;20064;-74
2022/01/31 00:30:17;;;;;;;;;;;;;;;-0.57;79.11;96852.34;4985463;28;20045;-75
2022/01/31 00:32:43;;;;;;;;;;;;;;;-0.56;79.49;96847.06;4991184;28;20455;-73
2022/01/31 00:35:09;;;;;;;;;;;;;;;-0.54;79.26;96840.03;4985352;28;19964;-74
2022/01/31 00:37:35;;;;;;;;;;;;;;;-0.54;79.14;96834.88;4980836;28;19956;-73
2022/01/31 00:40:02;;;;;;;;;;;;;;;-0.51;79.37;96849.22;4986528;28;20056;-74
2022/01/31 00:42:30;;;;;;;;;;;;;;;-0.53;78.73;96840.81;4987045;28;19951;-74
2022/01/31 00:45:07;;;;;;;;;;;;;;;-0.55;79.53;96846.09;4988154;28;19957;-74
2022/01/31 00:47:33;;;;;;;;;;;;;;;-0.53;79.75;96827.94;4986449;28;20002;-73
2022/01/31 00:52:31;;;;;;;;;;;;;;;-0.51;79.96;96837.16;4981435;28;19957;-74
2022/01/31 00:54:57;;;;;;;;;;;;;;;-0.47;79.75;96833.34;4986189;28;19984;-73
2022/01/31 00:57:23;;;;;;;;;;;;;;;-0.45;79.90;96812.63;4988563;28;19974;-74
2022/01/31 00:59:51;;;;;;;;;;;;;;;-0.44;79.79;96825.38;4986604;28;20004;-73
2022/01/31 01:02:17;;;;;;;;;;;;;;;-0.41;79.95;96821.69;4979806;28;19953;-74
2022/01/31 01:04:43;;;;;;;;;;;;;;;-0.40;79.84;96792.38;4983912;28;19965;-73
2022/01/31 01:07:09;;;;;;;;;;;;;;;-0.37;80.06;96786.16;4986979;28;19980;-73
2022/01/31 01:09:37;;;;;;;;;;;;;;;-0.37;80.38;96786.97;4988886;28;20433;-73
2022/01/31 01:12:03;;;;;;;;;;;;;;;-0.35;80.35;96777.31;4981852;28;19952;-73
2022/01/31 01:14:29;;;;;;;;;;;;;;;-0.33;81.15;96777.19;4983698;28;19953;-74
2022/01/31 01:16:56;;;;;;;;;;;;;;;-0.39;80.73;96734.75;4986263;28;20313;-72
2022/01/31 01:19:22;;;;;;;;;;;;;;;-0.43;80.68;96730.84;4987078;28;19961;-74
2022/01/31 01:21:48;;;;;;;;;;;;;;;-0.42;81.09;96741.00;4984970;28;19953;-73
2022/01/31 01:24:15;;;;;;;;;;;;;;;-0.39;80.80;96727.03;4983015;28;19966;-73
2022/01/31 01:26:41;;;;;;;;;;;;;;;-0.35;80.71;96730.13;4986145;28;19954;-73
2022/01/31 01:29:08;;;;;;;;;;;;;;;-0.33;81.01;96736.75;4988939;28;19966;-73
2022/01/31 01:31:34;;;;;;;;;;;;;;;-0.28;81.76;96731.97;4981682;28;20427;-73
2022/01/31 01:34:00;;;;;;;;;;;;;;;-0.27;80.90;96718.16;4983712;28;19981;-73
2022/01/31 01:36:26;;;;;;;;;;;;;;;-0.25;81.06;96700.78;4966891;28;19961;-73
2022/01/31 01:38:52;;;;;;;;;;;;;;;-0.26;81.12;96694.00;4984263;28;19961;-75
2022/01/31 01:41:18;;;;;;;;;;;;;;;-0.23;81.20;96692.91;4985476;28;20044;-75
2022/01/31 01:43:43;;;;;;;;;;;;;;;-0.21;81.40;96702.13;4962142;28;20001;-75
2022/01/31 01:46:09;;;;;;;;;;;;;;;-0.21;79.95;96688.41;4984061;28;19993;-75
2022/01/31 01:48:35;;;;;;;;;;;;;;;-0.25;82.01;96669.84;4984212;28;19972;-75
2022/01/31 01:51:02;;;;;;;;;;;;;;;-0.30;81.39;96646.28;4988450;28;19984;-75
2022/01/31 01:53:27;;;;;;;;;;;;;;;-0.30;81.84;96635.97;4979711;28;19954;-74
2022/01/31 01:55:54;;;;;;;;;;;;;;;-0.33;82.34;96625.16;4985424;28;19964;-74
2022/01/31 01:58:22;;;;;;;;;;;;;;;-0.33;81.73;96614.84;4989636;28;20007;-74
2022/01/31 02:00:50;;;;;;;;;;;;;;;-0.28;82.34;96613.44;4984356;28;19968;-74
2022/01/31 02:03:17;;;;;;;;;;;;;;;-0.23;81.73;96613.03;4984777;28;19980;-74
2022/01/31 02:05:43;;;;;;;;;;;;;;;-0.25;82.84;96577.09;4988335;28;19963;-75
2022/01/31 02:08:10;;;;;;;;;;;;;;;-0.27;82.45;96583.34;4990699;28;19971;-76
2022/01/31 02:10:36;;;;;;;;;;;;;;;-0.24;82.00;96559.84;4995331;28;19960;-75
2022/01/31 02:13:06;;;;;;;;;;;;;;;-0.24;82.68;96549.53;4983353;28;19961;-74
2022/01/31 02:15:32;;;;;;;;;;;;;;;-0.27;83.68;96531.81;4994495;28;19950;-75
2022/01/31 02:17:58;;;;;;;;;;;;;;;-0.32;83.10;96521.13;4993100;28;19949;-74
2022/01/31 02:20:24;;;;;;;;;;;;;;;-0.35;83.24;96522.22;4993689;28;19954;-75
2022/01/31 02:22:50;;;;;;;;;;;;;;;-0.34;82.93;96530.75;4990935;28;19959;-75
2022/01/31 02:25:16;;;;;;;;;;;;;;;-0.33;82.51;96529.81;4985316;28;19964;-74
2022/01/31 02:27:43;;;;;;;;;;;;;;;-0.28;82.61;96538.69;4992953;28;20038;-73
2022/01/31 02:30:11;;;;;;;;;;;;;;;-0.25;82.19;96535.84;4994006;28;19977;-74
2022/01/31 02:32:37;;;;;;;;;;;;;;;-0.22;82.14;96522.66;4986682;28;19945;-74
2022/01/31 02:35:04;;;;;;;;;;;;;;;-0.23;82.06;96535.72;4990934;28;19959;-74
2022/01/31 02:37:31;;;;;;;;;;;;;;;-0.22;82.42;96525.22;4989491;28;19961;-75
2022/01/31 02:39:56;;;;;;;;;;;;;;;-0.21;82.41;96516.56;4995838;28;19972;-76
2022/01/31 02:42:23;;;;;;;;;;;;;;;-0.19;82.54;96524.13;4996292;28;19989;-74
2022/01/31 02:44:49;;;;;;;;;;;;;;;-0.17;82.63;96500.78;4987630;28;20401;-74
2022/01/31 02:47:22;;;;;;;;;;;;;;;-0.14;82.27;96523.69;4989263;28;19967;-74
2022/01/31 02:49:53;;;;;;;;;;;;;;;-0.13;82.31;96507.25;4993429;28;20015;-74
2022/01/31 02:52:19;;;;;;;;;;;;;;;-0.11;82.00;96495.03;4991139;28;19965;-74
2022/01/31 02:54:45;;;;;;;;;;;;;;;-0.08;82.01;96489.59;4989279;28;20370;-74
2022/01/31 02:57:11;;;;;;;;;;;;;;;-0.06;82.08;96474.78;4989798;28;19957;-74
2022/01/31 02:59:37;;;;;;;;;;;;;;;-0.01;81.78;96457.88;4990089;28;19956;-74
2022/01/31 03:02:04;;;;;;;;;;;;;;;0.02;81.59;96443.06;4989601;28;19989;-74
2022/01/31 03:04:30;;;;;;;;;;;;;;;0.02;81.45;96425.03;4989771;28;20335;-75
2022/01/31 03:06:56;;;;;;;;;;;;;;;0.04;81.54;96420.53;4991303;28;19955;-74
2022/01/31 03:09:22;;;;;;;;;;;;;;;0.04;81.60;96415.38;4988154;28;20384;-74
2022/01/31 03:11:47;;;;;;;;;;;;;;;0.03;81.54;96409.41;4989223;28;19955;-74
2022/01/31 03:14:16;;;;;;;;;;;;;;;0.04;81.72;96392.97;4995756;28;20473;-76
2022/01/31 03:16:44;;;;;;;;;;;;;;;0.06;81.47;96390.25;4990132;28;20428;-74
2022/01/31 03:19:10;;;;;;;;;;;;;;;0.07;81.91;96391.88;4986437;28;19956;-74
2022/01/31 03:21:37;;;;;;;;;;;;;;;0.06;81.98;96370.41;4985347;28;19963;-74
2022/01/31 03:24:03;;;;;;;;;;;;;;;0.09;81.92;96384.81;4992411;28;19958;-74
2022/01/31 03:26:29;;;;;;;;;;;;;;;0.09;81.76;96362.41;4989050;28;19961;-75
2022/01/31 03:28:55;;;;;;;;;;;;;;;0.05;82.65;96363.66;4980508;28;19992;-75
2022/01/31 03:31:21;;;;;;;;;;;;;;;0.02;82.90;96348.50;4990295;28;19953;-75
2022/01/31 03:33:48;;;;;;;;;;;;;;;0.01;82.83;96357.19;4991448;28;20054;-74
2022/01/31 03:36:14;;;;;;;;;;;;;;;0.04;82.89;96343.97;4981237;28;19953;-74
2022/01/31 03:38:41;;;;;;;;;;;;;;;0.07;83.19;96335.16;4985658;28;20340;-74
2022/01/31 03:41:07;;;;;;;;;;;;;;;0.09;83.01;96320.34;4985258;28;19984;-77
2022/01/31 03:43:33;;;;;;;;;;;;;;;0.11;83.32;96298.59;4989574;28;19966;-74
2022/01/31 03:45:59;;;;;;;;;;;;;;;0.15;82.98;96281.03;4990429;28;19966;-75
2022/01/31 03:48:27;;;;;;;;;;;;;;;0.16;83.03;96280.06;4982359;28;19981;-75
2022/01/31 03:50:54;;;;;;;;;;;;;;;0.18;83.07;96302.16;4983955;28;19961;-75
2022/01/31 03:53:20;;;;;;;;;;;;;;;0.20;83.39;96313.13;4993040;28;20019;-74
2022/01/31 03:55:46;;;;;;;;;;;;;;;0.24;83.79;96329.09;4983165;28;20492;-73
2022/01/31 03:58:12;;;;;;;;;;;;;;;0.26;83.60;96323.78;4982250;28;20437;-74
2022/01/31 04:00:38;;;;;;;;;;;;;;;0.27;84.82;96317.66;4990526;28;19956;-74
2022/01/31 04:03:04;;;;;;;;;;;;;;;0.28;84.32;96304.59;4988198;28;20326;-74
2022/01/31 04:05:31;;;;;;;;;;;;;;;0.31;84.14;96301.69;4981932;28;19957;-74
2022/01/31 04:07:57;;;;;;;;;;;;;;;0.36;83.99;96309.00;4984867;28;19957;-75
2022/01/31 04:10:24;;;;;;;;;;;;;;;0.41;83.80;96306.72;4986949;28;19950;-75
2022/01/31 04:12:49;;;;;;;;;;;;;;;0.45;83.55;96302.06;4988763;28;19962;-76
2022/01/31 04:15:15;;;;;;;;;;;;;;;0.47;84.31;96295.78;4987136;28;19997;-75
2022/01/31 04:17:41;;;;;;;;;;;;;;;0.49;83.28;96296.44;4986159;28;19963;-75
2022/01/31 04:20:08;;;;;;;;;;;;;;;0.52;83.39;96293.53;4986124;28;20463;-75
2022/01/31 04:22:38;;;;;;;;;;;;;;;0.54;83.42;96294.19;4987304;28;19964;-75
2022/01/31 04:25:06;;;;;;;;;;;;;;;0.56;83.48;96296.59;4989861;28;19962;-75
2022/01/31 04:27:44;;;;;;;;;;;;;;;0.56;83.46;96291.44;4980428;28;19952;-76
2022/01/31 04:30:12;;;;;;;;;;;;;;;0.57;83.77;96283.56;4983259;28;19968;-75
2022/01/31 04:32:38;;;;;;;;;;;;;;;0.57;83.71;96290.50;4983652;28;19967;-75
2022/01/31 04:35:04;;;;;;;;;;;;;;;0.58;83.41;96292.09;4989473;28;19955;-75
2022/01/31 04:37:30;;;;;;;;;;;;;;;0.61;83.59;96276.31;4984008;28;20398;-75
2022/01/31 04:39:56;;;;;;;;;;;;;;;0.62;83.79;96269.38;4978957;28;19958;-75
2022/01/31 04:42:23;;;;;;;;;;;;;;;0.65;83.52;96269.88;4992258;28;20006;-75
2022/01/31 04:44:49;;;;;;;;;;;;;;;0.66;83.24;96250.81;4986263;28;19954;-75
2022/01/31 04:47:14;;;;;;;;;;;;;;;0.66;84.01;96232.75;4985953;28;20360;-75
2022/01/31 04:49:41;;;;;;;;;;;;;;;0.69;83.98;96234.19;4983217;28;20359;-75
2022/01/31 04:52:06;;;;;;;;;;;;;;;0.71;84.11;96242.59;4986714;28;19967;-75
2022/01/31 04:54:32;;;;;;;;;;;;;;;0.71;84.42;96240.00;4988802;28;19978;-75
2022/01/31 04:56:58;;;;;;;;;;;;;;;0.70;84.21;96236.63;4984859;28;19964;-75
2022/01/31 04:59:24;;;;;;;;;;;;;;;0.72;84.03;96239.06;4988933;28;19990;-75
2022/01/31 05:01:50;;;;;;;;;;;;;;;0.73;83.73;96231.13;4981088;28;19966;-75
2022/01/31 05:04:16;;;;;;;;;;;;;;;0.76;83.82;96219.69;4984863;28;20036;-75
2022/01/31 05:06:44;;;;;;;;;;;;;;;0.79;84.03;96212.41;4989834;28;19959;-75
2022/01/31 05:09:11;;;;;;;;;;;;;;;0.79;84.40;96196.94;4984271;28;19975;-75
2022/01/31 05:11:36;;;;;;;;;;;;;;;0.80;83.83;96193.41;4981833;28;20439;-75
2022/01/31 05:14:02;;;;;;;;;;;;;;;0.80;83.97;96184.84;4988478;28;19954;-75
2022/01/31 05:16:28;;;;;;;;;;;;;;;0.80;84.25;96171.94;4984373;28;19955;-75
2022/01/31 05:18:54;;;;;;;;;;;;;;;0.81;83.84;96173.53;4983433;28;20011;-75
2022/01/31 05:21:20;;;;;;;;;;;;;;;0.81;84.32;96166.59;4978579;28;20001;-75
2022/01/31 05:23:49;;;;;;;;;;;;;;;0.84;84.23;96160.31;4990604;28;20376;-75
2022/01/31 05:26:16;;;;;;;;;;;;;;;0.84;84.40;96152.59;4989688;28;19964;-75
2022/01/31 05:28:42;;;;;;;;;;;;;;;0.85;84.49;96123.19;4979084;28;19974;-75
2022/01/31 05:31:08;;;;;;;;;;;;;;;0.85;84.14;96107.72;4984999;28;20000;-75
2022/01/31 05:33:34;;;;;;;;;;;;;;;0.85;83.98;96099.97;4985482;28;19961;-75
2022/01/31 05:36:00;;;;;;;;;;;;;;;0.87;84.08;96095.44;4985722;28;19956;-75
2022/01/31 05:38:26;;;;;;;;;;;;;;;0.89;85.01;96095.28;4984111;28;19957;-76
2022/01/31 05:40:51;;;;;;;;;;;;;;;0.91;84.51;96088.97;4983394;28;19968;-75
2022/01/31 05:43:19;;;;;;;;;;;;;;;0.93;84.10;96074.13;4983609;28;20031;-75
2022/01/31 05:45:45;;;;;;;;;;;;;;;0.96;83.83;96067.81;4985642;28;20441;-76
2022/01/31 05:48:11;;;;;;;;;;;;;;;1.02;84.32;96080.06;4982374;28;20327;-76
2022/01/31 05:50:38;;;;;;;;;;;;;;;1.03;84.44;96073.94;4987836;28;19983;-76
2022/01/31 05:53:05;;;;;;;;;;;;;;;1.06;83.54;96067.63;4988507;28;19967;-76
2022/01/31 05:55:30;;;;;;;;;;;;;;;1.09;84.42;96069.88;4977868;28;19978;-76
2022/01/31 05:57:56;;;;;;;;;;;;;;;1.12;83.23;96048.91;4982952;28;19963;-76
2022/01/31 06:00:22;;;;;;;;;;;;;;;1.14;83.93;96039.19;4985934;28;19979;-76
2022/01/31 06:02:53;;;;;;;;;;;;;;;1.17;84.17;96039.66;4983950;28;19960;-75
2022/01/31 06:05:19;;;;;;;;;;;;;;;1.20;84.32;96015.28;4985745;28;19962;-75
2022/01/31 06:07:45;;;;;;;;;;;;;;;1.23;84.35;96020.09;4980456;28;19998;-75
2022/01/31 06:10:11;;;;;;;;;;;;;;;1.25;83.91;96010.41;4988455;28;20326;-75
2022/01/31 06:12:41;;;;;;;;;;;;;;;1.26;83.96;96009.44;4987972;28;19968;-76
2022/01/31 06:15:07;;;;;;;;;;;;;;;1.30;84.34;95996.97;4962654;28;19953;-75
2022/01/31 06:17:33;;;;;;;;;;;;;;;1.33;83.84;95994.84;4981893;28;20425;-76
2022/01/31 06:19:58;;;;;;;;;;;;;;;1.36;83.94;95983.38;4985771;28;19963;-75
2022/01/31 06:22:24;;;;;;;;;;;;;;;1.39;84.28;95981.25;4990221;28;20384;-75
2022/01/31 06:24:50;;;;;;;;;;;;;;;1.41;84.83;95987.06;4982331;28;20365;-75
2022/01/31 06:27:16;;;;;;;;;;;;;;;1.44;85.06;95990.28;4984395;28;20065;-75
2022/01/31 06:29:42;;;;;;;;;;;;;;;1.45;86.04;95987.53;4982648;28;20429;-75
2022/01/31 06:32:08;;;;;;;;;;;;;;;1.46;86.01;95988.31;4985642;28;20011;-74
2022/01/31 06:34:34;;;;;;;;;;;;;;;1.48;86.21;95986.38;4985628;28;20054;-75
2022/01/31 06:37:04;;;;;;;;;;;;;;;1.49;86.21;95987.97;4985572;28;19981;-75
2022/01/31 06:39:30;;;;;;;;;;;;;;;1.51;86.23;95992.00;4980950;28;19963;-75
2022/01/31 06:41:56;;;;;;;;;;;;;;;1.50;87.82;95982.63;4983934;28;19962;-75
2022/01/31 06:44:22;;;;;;;;;;;;;;;1.51;87.68;95986.00;4989983;28;20326;-75
2022/01/31 06:46:48;;;;;;;;;;;;;;;1.51;86.96;95981.69;4983282;28;20009;-75
2022/01/31 06:49:14;;;;;;;;;;;;;;;1.52;88.68;95985.06;4982953;28;19964;-75
2022/01/31 06:51:40;;;;;;;;;;;;;;;1.52;88.24;95979.88;4991768;28;20425;-75
2022/01/31 06:54:07;;;;;;;;;;;;;;;1.54;88.96;95983.91;4990926;28;20044;-75
2022/01/31 06:56:35;;;;;;;;;;;;;;;1.55;88.42;95982.13;4981738;28;19958;-74
2022/01/31 06:59:02;;;;;;;;;;;;;;;1.56;89.21;95975.97;4987456;28;19962;-75
2022/01/31 07:01:28;;;;;;;;;;;;;;;1.58;89.99;95981.78;4989848;28;19960;-74
2022/01/31 07:03:54;;;;;;;;;;;;;;;1.58;90.69;95986.97;4989519;28;19962;-75
2022/01/31 07:06:21;;;;;;;;;;;;;;;1.58;89.65;95989.53;4984022;28;20322;-74
2022/01/31 07:08:48;;;;;;;;;;;;;;;1.57;90.80;95965.44;4986180;28;20403;-74
2022/01/31 07:11:19;;;;;;;;;;;;;;;1.60;90.90;95990.16;4991804;28;19950;-74
2022/01/31 07:13:48;;;;;;;;;;;;;;;1.59;91.43;95989.34;4989261;28;19964;-74
2022/01/31 07:16:14;;;;;;;;;;;;;;;1.60;91.56;95985.00;4991723;28;19967;-74
2022/01/31 07:18:40;;;;;;;;;;;;;;;1.59;93.60;95994.50;4981977;28;19983;-74
2022/01/31 07:21:11;;;;;;;;;;;;;;;1.59;93.08;95985.97;4982942;28;19953;-74
2022/01/31 07:23:51;;;;;;;;;;;;;;;1.60;92.22;95985.78;4987215;28;19963;-74
2022/01/31 07:26:17;;;;;;;;;;;;;;;1.60;92.23;95992.75;4987175;28;19963;-74
2022/01/31 07:28:43;;;;;;;;;;;;;;;1.59;94.01;95989.34;4988739;28;19963;-74
2022/01/31 07:31:11;;;;;;;;;;;;;;;1.58;94.24;95992.91;4983164;28;19970;-74
2022/01/31 07:33:37;;;;;;;;;;;;;;;1.58;93.71;95995.50;4985865;28;19958;-74
2022/01/31 07:36:03;;;;;;;;;;;;;;;1.56;94.10;95994.06;4988407;28;19956;-74
2022/01/31 07:38:29;;;;;;;;;;;;;;;1.53;93.21;96004.75;4986339;28;20046;-74
2022/01/31 07:40:57;;;;;;;;;;;;;;;1.53;94.26;95999.56;4987794;28;19954;-74
2022/01/31 07:43:23;;;;;;;;;;;;;;;1.54;93.68;96007.16;4985115;28;20333;-74
2022/01/31 07:45:49;;;;;;;;;;;;;;;1.53;93.75;96013.28;4984316;28;19957;-74
2022/01/31 07:48:16;;;;;;;;;;;;;;;1.54;93.84;96008.94;4990261;28;19963;-74
2022/01/31 07:50:41;;;;;;;;;;;;;;;1.53;93.46;96004.75;4983867;28;19977;-73
2022/01/31 07:53:09;;;;;;;;;;;;;;;1.53;94.16;96021.03;4984802;28;19961;-75
2022/01/31 07:55:35;;;;;;;;;;;;;;;1.54;94.42;96027.84;4985140;28;19983;-74
2022/01/31 07:58:02;;;;;;;;;;;;;;;1.55;93.97;96034.59;4984503;28;19966;-75
2022/01/31 08:00:29;;;;;;;;;;;;;;;1.55;93.97;96036.38;4987328;28;19960;-74
2022/01/31 08:02:56;;;;;;;;;;;;;;;1.55;92.66;96034.59;4991302;28;19959;-74
2022/01/31 08:05:22;;;;;;;;;;;;;;;1.58;92.53;96041.22;4986805;28;19955;-74
2022/01/31 08:07:48;;;;;;;;;;;;;;;1.58;93.37;96038.63;4980293;28;20412;-74
2022/01/31 08:10:15;;;;;;;;;;;;;;;1.63;94.95;96029.38;4987324;28;19966;-73
2022/01/31 08:12:42;;;;;;;;;;;;;;;1.69;93.23;96027.88;4985620;28;19956;-73
2022/01/31 08:15:14;;;;;;;;;;;;;;;1.71;92.93;96038.88;4986199;28;20447;-74
2022/01/31 08:17:40;;;;;;;;;;;;;;;1.73;92.55;96039.50;4984782;28;19958;-73
2022/01/31 08:20:07;;;;;;;;;;;;;;;1.74;92.88;96032.53;4982711;28;19949;-73
2022/01/31 08:22:33;;;;;;;;;;;;;;;1.74;92.84;96046.28;4987590;28;19953;-74
2022/01/31 08:24:59;;;;;;;;;;;;;;;1.74;93.78;96035.13;4989919;28;20076;-73
2022/01/31 08:27:25;;;;;;;;;;;;;;;1.72;93.71;96035.31;4981447;28;19950;-73
2022/01/31 08:29:56;;;;;;;;;;;;;;;1.70;93.30;96037.28;4984150;28;19979;-73
2022/01/31 08:32:33;;;;;;;;;;;;;;;1.71;92.86;96035.47;4992248;28;19961;-73
2022/01/31 08:37:44;;;;;;;;;;;;;;;1.74;92.42;96045.47;4980893;28;20296;-73
2022/01/31 08:40:10;;;;;;;;;;;;;;;1.76;93.78;96051.25;4986535;28;19985;-73
2022/01/31 08:42:36;;;;;;;;;;;;;;;1.76;93.79;96046.09;4990846;28;19968;-73
2022/01/31 08:45:03;;;;;;;;;;;;;;;1.79;94.27;96049.16;4986070;28;19962;-73
2022/01/31 08:47:29;;;;;;;;;;;;;;;1.96;96.35;96031.72;4987194;28;20051;-73
2022/01/31 08:49:54;;;;;;;;;;;;;;;2.16;95.65;96031.25;4981249;28;19973;-73
2022/01/31 08:52:20;;;;;;;;;;;;;;;2.27;93.43;96028.25;4984599;28;19966;-73
2022/01/31 08:54:46;;;;;;;;;;;;;;;2.32;93.39;96038.06;4984472;28;20018;-73
2022/01/31 08:57:12;;;;;;;;;;;;;;;2.26;91.07;96038.75;4990386;28;19958;-73
2022/01/31 08:59:44;;;;;;;;;;;;;;;2.13;91.30;96035.00;4986977;28;19970;-73
2022/01/31 09:02:14;;;;;;;;;;;;;;;2.05;92.00;96024.72;4978796;28;19956;-73
2022/01/31 09:04:49;;;;;;;;;;;;;;;2.02;92.63;96020.69;4989381;28;19957;-73
2022/01/31 09:07:16;;;;;;;;;;;;;;;2.04;93.43;96023.13;4989838;28;20320;-73
2022/01/31 09:09:42;;;;;;;;;;;;;;;2.05;92.34;96008.41;4981856;28;19968;-73
2022/01/31 09:12:10;;;;;;;;;;;;;;;2.14;94.46;96002.97;4985885;28;19965;-73
2022/01/31 09:14:36;;;;;;;;;;;;;;;2.41;93.85;95998.19;4985499;28;19956;-73
2022/01/31 09:17:02;;;;;;;;;;;;;;;2.75;92.79;96002.84;4986977;28;19963;-73
2022/01/31 09:19:28;;;;;;;;;;;;;;;3.19;91.93;95995.97;4983656;28;20437;-73
2022/01/31 09:21:54;;;;;;;;;;;;;;;3.62;90.68;95985.66;4979811;28;19993;-73
2022/01/31 09:24:20;;;;;;;;;;;;;;;4.12;89.40;95983.09;4985411;28;20001;-73
2022/01/31 09:26:47;;;;;;;;;;;;;;;4.50;86.17;95977.56;4986775;28;19970;-73
2022/01/31 09:29:13;;;;;;;;;;;;;;;4.79;85.46;95984.31;4987363;28;19954;-73
2022/01/31 09:31:39;;;;;;;;;;;;;;;5.07;84.47;95979.81;4983950;28;19962;-73
2022/01/31 09:34:06;;;;;;;;;;;;;;;5.26;81.43;95970.47;4982871;28;19957;-73
2022/01/31 09:36:32;;;;;;;;;;;;;;;5.37;81.56;95976.88;4986303;28;19954;-73
2022/01/31 09:38:58;;;;;;;;;;;;;;;5.43;80.21;95977.91;4982542;28;19971;-73
2022/01/31 09:41:26;;;;;;;;;;;;;;;5.47;78.70;95966.91;4984068;28;20474;-71
2022/01/31 09:44:06;;;;;;;;;;;;;;;5.92;81.46;95976.75;4990852;28;19961;-73
2022/01/31 09:47:04;;;;;;;;;;;;;;;6.32;75.69;95955.16;4989613;28;19955;-75
2022/01/31 09:49:30;;;;;;;;;;;;;;;6.30;74.36;95961.38;4983137;28;19966;-74
2022/01/31 09:51:56;;;;;;;;;;;;;;;6.20;74.68;95970.59;4978521;28;19960;-74
2022/01/31 09:54:24;;;;;;;;;;;;;;;6.03;73.88;95960.59;4982901;28;20051;-74
2022/01/31 09:56:50;;;;;;;;;;;;;;;5.87;73.96;95982.56;4983375;28;19965;-75
2022/01/31 09:59:17;;;;;;;;;;;;;;;5.74;75.02;95985.19;4976215;28;19963;-74
2022/01/31 10:01:46;;;;;;;;;;;;;;;5.51;75.79;95993.34;4977785;28;19960;-74
2022/01/31 10:04:18;;;;;;;;;;;;;;;5.26;76.16;96000.88;4984776;28;19976;-74
2022/01/31 10:06:48;;;;;;;;;;;;;;;5.05;75.78;96004.38;4990059;28;19955;-75
2022/01/31 10:09:18;;;;;;;;;;;;;;;4.93;79.89;96004.13;4984476;28;19955;-74
2022/01/31 10:12:04;;;;;;;;;;;;;;;5.12;77.62;95994.03;4982345;28;19960;-74
2022/01/31 10:17:24;;;;;;;;;;;;;;;4.64;76.26;96002.56;4981084;28;19948;-74
2022/01/31 10:19:51;;;;;;;;;;;;;;;4.35;76.63;95999.22;4967651;28;19964;-74
2022/01/31 10:22:19;;;;;;;;;;;;;;;4.19;78.49;96000.28;4977920;28;19952;-74
2022/01/31 10:24:46;;;;;;;;;;;;;;;4.07;78.83;95988.81;4989552;28;20437;-74
2022/01/31 10:27:13;;;;;;;;;;;;;;;3.91;78.41;95995.09;4988893;28;19958;-74
2022/01/31 10:29:40;;;;;;;;;;;;;;;3.87;78.67;95991.28;4986997;28;20433;-74
2022/01/31 10:32:08;;;;;;;;;;;;;;;3.83;78.66;95997.81;4986217;28;19966;-76
2022/01/31 10:34:36;;;;;;;;;;;;;;;3.79;79.36;95992.19;4966832;28;19953;-74
2022/01/31 10:37:09;;;;;;;;;;;;;;;3.74;79.02;95994.56;4987368;28;20414;-74
2022/01/31 10:56:35;;;;;;;;;;;;;;;4.24;77.10;95969.41;4982604;28;19957;-74
2022/01/31 10:59:04;;;;;;;;;;;;;;;4.30;75.67;95938.47;4988325;28;19956;-74
2022/01/31 11:01:30;;;;;;;;;;;;;;;4.30;75.94;95946.25;4990413;28;19966;-74
2022/01/31 11:04:00;;;;;;;;;;;;;;;4.24;74.98;95946.03;4988691;28;19958;-75
2022/01/31 11:06:26;;;;;;;;;;;;;;;4.18;74.58;95948.56;4982765;28;19955;-75
2022/01/31 11:08:59;;;;;;;;;;;;;;;4.10;75.23;95941.75;4990889;28;19963;-74
2022/01/31 11:11:25;;;;;;;;;;;;;;;4.02;74.42;95947.88;4993067;28;20430;-74
2022/01/31 11:13:52;;;;;;;;;;;;;;;3.95;74.07;95949.63;4985805;28;20008;-74
2022/01/31 11:16:18;;;;;;;;;;;;;;;3.93;74.28;95950.81;4984210;28;19961;-74
2022/01/31 11:18:44;;;;;;;;;;;;;;;3.92;74.39;95954.38;4989099;28;19963;-74
2022/01/31 11:21:11;;;;;;;;;;;;;;;3.89;73.89;95957.38;4990601;28;20008;-74
2022/01/31 11:23:40;;;;;;;;;;;;;;;3.88;74.40;95953.16;4986906;28;19963;-74
2022/01/31 11:26:07;;;;;;;;;;;;;;;3.87;74.76;95973.13;4985448;28;19954;-74
2022/01/31 11:28:34;;;;;;;;;;;;;;;3.86;74.87;95963.72;4985690;28;19950;-74
2022/01/31 11:31:01;;;;;;;;;;;;;;;3.87;75.11;95957.56;4989411;28;19979;-74
2022/01/31 11:33:28;;;;;;;;;;;;;;;3.90;75.65;95962.34;4990766;28;19953;-74
2022/01/31 11:35:54;;;;;;;;;;;;;;;3.94;75.19;95957.59;4987477;28;19956;-74
2022/01/31 11:38:20;;;;;;;;;;;;;;;3.98;75.18;95975.19;4987840;28;19962;-75
2022/01/31 11:40:47;;;;;;;;;;;;;;;4.01;74.32;95968.81;4983725;28;19957;-74
2022/01/31 11:43:14;;;;;;;;;;;;;;;3.97;73.74;95972.78;4980530;28;19967;-75
2022/01/31 11:45:41;;;;;;;;;;;;;;;3.92;72.84;95960.38;4990743;28;19956;-74
2022/01/31 11:48:12;;;;;;;;;;;;;;;3.86;73.12;95969.72;4986520;28;19961;-74
2022/01/31 11:50:43;;;;;;;;;;;;;;;3.83;73.70;95970.09;4980417;28;19971;-75
2022/01/31 11:53:09;;;;;;;;;;;;;;;3.81;73.47;95976.44;4989278;28;20140;-74
2022/01/31 11:55:38;;;;;;;;;;;;;;;3.74;73.52;95955.66;4987741;28;19992;-75
2022/01/31 11:58:07;;;;;;;;;;;;;;;3.72;73.69;95965.41;4985722;28;19959;-74
2022/01/31 12:00:35;;;;;;;;;;;;;;;3.65;73.96;95978.31;4983158;28;20323;-75
2022/01/31 12:03:03;;;;;;;;;;;;;;;3.60;73.21;95959.13;4985033;28;19957;-74
2022/01/31 12:05:31;;;;;;;;;;;;;;;3.58;73.87;95961.09;4967235;28;19952;-74
2022/01/31 12:08:17;;;;;;;;;;;;;;;3.57;73.45;95955.09;4983555;28;20398;-74
2022/01/31 12:10:46;;;;;;;;;;;;;;;3.51;72.03;95950.66;4984608;28;19966;-74
2022/01/31 12:13:57;;;;;;;;;;;;;;;3.48;72.76;95955.41;4983948;28;19955;-74
2022/01/31 12:16:47;;;;;;;;;;;;;;;3.41;72.07;95957.94;4981849;28;19963;-75
2022/01/31 12:22:05;;;;;;;;;;;;;;;3.35;73.82;95954.28;4967291;28;20403;-74
2022/01/31 12:24:33;;;;;;;;;;;;;;;3.36;73.67;95952.50;4985492;28;19961;-74
2022/01/31 12:27:04;;;;;;;;;;;;;;;3.33;74.02;95964.03;4990963;28;19962;-74
2022/01/31 12:29:31;;;;;;;;;;;;;;;3.30;73.92;95961.00;4987233;28;19981;-74
2022/01/31 12:32:09;;;;;;;;;;;;;;;3.31;74.37;95957.44;4979508;28;19968;-75
2022/01/31 12:34:36;;;;;;;;;;;;;;;3.30;74.88;95967.00;4984526;28;19956;-75
2022/01/31 12:37:04;;;;;;;;;;;;;;;3.25;74.72;95971.94;4984941;28;19957;-74
2022/01/31 12:39:41;;;;;;;;;;;;;;;3.21;75.28;95968.09;4989478;28;19959;-75
2022/01/31 12:42:42;;;;;;;;;;;;;;;3.17;76.15;95966.84;4981927;28;19943;-74
2022/01/31 12:45:08;;;;;;;;;;;;;;;3.15;76.66;95972.25;4981903;28;20326;-74
2022/01/31 12:47:34;;;;;;;;;;;;;;;3.12;77.01;95970.00;4981066;28;19956;-74
2022/01/31 12:50:22;;;;;;;;;;;;;;;3.08;76.65;95952.41;4985416;28;20010;-74
2022/01/31 12:52:48;;;;;;;;;;;;;;;3.06;77.84;95957.78;4990515;28;19957;-74
2022/01/31 12:55:15;;;;;;;;;;;;;;;3.05;78.27;95948.41;4992853;28;20385;-74
2022/01/31 12:57:51;;;;;;;;;;;;;;;3.05;78.55;95951.78;4985370;28;19955;-75
2022/01/31 13:00:32;;;;;;;;;;;;;;;3.03;78.39;95955.56;4982376;28;19966;-74
2022/01/31 13:02:58;;;;;;;;;;;;;;;2.97;79.05;95958.88;4979840;28;19954;-75
2022/01/31 13:05:31;;;;;;;;;;;;;;;2.88;79.57;95952.19;4987629;28;19972;-74
2022/01/31 13:07:57;;;;;;;;;;;;;;;2.83;80.99;95947.53;4991569;28;19959;-74
2022/01/31 13:10:23;;;;;;;;;;;;;;;2.79;81.04;95957.47;4981176;28;19973;-74
2022/01/31 13:13:00;;;;;;;;;;;;;;;2.74;81.66;95946.06;4984958;28;19955;-74
2022/01/31 13:15:26;;;;;;;;;;;;;;;2.70;82.01;95948.19;4990751;28;19964;-74
2022/01/31 13:18:02;;;;;;;;;;;;;;;2.67;81.64;95937.38;4983888;28;20003;-74
2022/01/31 13:20:28;;;;;;;;;;;;;;;2.65;82.25;95947.94;4979235;28;19962;-75
2022/01/31 13:22:54;;;;;;;;;;;;;;;2.62;82.30;95949.13;4983592;28;20046;-74
2022/01/31 13:25:21;;;;;;;;;;;;;;;2.64;81.81;95948.91;4984885;28;19965;-75